createdAt,value
2018-11-25T00:00:19.920Z,0.00
2018-11-25T00:01:19.895Z,0.00
2018-11-25T00:02:19.870Z,0.00
2018-11-25T00:03:19.843Z,0.00
2018-11-25T00:04:19.816Z,0.00
2018-11-25T00:05:19.793Z,0.00
2018-11-25T00:06:19.770Z,0.00
2018-11-25T00:07:19.746Z,0.00
2018-11-25T00:08:19.769Z,0.00
2018-11-25T00:09:19.689Z,0.00
2018-11-25T00:10:19.665Z,0.00
2018-11-25T00:11:19.635Z,0.00
2018-11-25T00:12:19.615Z,0.00
2018-11-25T00:13:19.584Z,0.00
2018-11-25T00:14:20.064Z,0.00
2018-11-25T00:15:19.545Z,0.00
2018-11-25T00:16:19.507Z,0.00
2018-11-25T00:17:19.481Z,0.00
2018-11-25T00:18:19.458Z,0.00
2018-11-25T00:19:19.431Z,0.00
2018-11-25T00:20:19.402Z,0.00
2018-11-25T00:21:19.377Z,0.00
2018-11-25T00:22:19.355Z,0.00
2018-11-25T00:23:19.549Z,0.00
2018-11-25T00:24:19.301Z,0.00
2018-11-25T00:25:19.276Z,0.00
2018-11-25T00:26:19.261Z,0.00
2018-11-25T00:27:19.221Z,0.00
2018-11-25T00:28:19.197Z,0.00
2018-11-25T00:29:23.930Z,0.00
2018-11-25T00:30:19.142Z,0.00
2018-11-25T00:31:19.168Z,0.00
2018-11-25T00:32:19.101Z,0.00
2018-11-25T00:33:19.070Z,0.00
2018-11-25T00:34:19.040Z,0.00
2018-11-25T00:35:19.015Z,0.00
2018-11-25T00:36:18.990Z,0.00
2018-11-25T00:37:18.962Z,0.00
2018-11-25T00:38:18.938Z,0.00
2018-11-25T00:39:18.912Z,0.00
2018-11-25T00:40:18.893Z,0.00
2018-11-25T00:41:18.859Z,0.00
2018-11-25T00:42:18.837Z,0.00
2018-11-25T00:43:18.810Z,0.00
2018-11-25T00:44:18.784Z,0.00
2018-11-25T00:45:22.384Z,0.00
2018-11-25T00:46:22.620Z,0.00
2018-11-25T00:47:18.809Z,0.00
2018-11-25T00:49:12.070Z,0.00
2018-11-25T00:50:12.009Z,0.00
2018-11-25T00:52:06.368Z,0.00
2018-11-25T00:53:06.334Z,0.00
2018-11-25T00:55:00.686Z,0.00
2018-11-25T00:56:00.631Z,0.00
2018-11-25T00:57:54.965Z,0.00
2018-11-25T00:58:54.930Z,0.00
2018-11-25T01:00:48.285Z,0.00
2018-11-25T01:01:48.236Z,0.00
2018-11-25T01:03:41.583Z,0.00
2018-11-25T01:04:41.525Z,0.00
2018-11-25T01:06:34.856Z,0.00
2018-11-25T01:07:34.824Z,0.00
2018-11-25T01:08:34.797Z,0.00
2018-11-25T01:09:34.771Z,0.00
2018-11-25T01:10:34.744Z,0.00
2018-11-25T01:11:34.719Z,0.00
2018-11-25T01:12:34.692Z,0.00
2018-11-25T01:13:34.668Z,0.00
2018-11-25T01:14:34.642Z,0.00
2018-11-25T01:15:34.615Z,0.00
2018-11-25T01:16:34.591Z,0.00
2018-11-25T01:17:34.563Z,0.00
2018-11-25T01:18:34.538Z,0.00
2018-11-25T01:19:34.510Z,0.00
2018-11-25T01:20:34.489Z,0.00
2018-11-25T01:21:34.464Z,0.00
2018-11-25T01:22:34.442Z,0.00
2018-11-25T01:23:34.408Z,0.00
2018-11-25T01:24:34.381Z,0.00
2018-11-25T01:25:34.360Z,0.00
2018-11-25T01:26:34.328Z,0.00
2018-11-25T01:27:34.303Z,0.00
2018-11-25T01:28:34.276Z,0.00
2018-11-25T01:29:34.251Z,0.00
2018-11-25T01:30:34.224Z,0.00
2018-11-25T01:31:34.198Z,0.00
2018-11-25T01:32:34.176Z,0.00
2018-11-25T01:33:34.151Z,0.00
2018-11-25T01:34:34.122Z,0.00
2018-11-25T01:35:34.098Z,0.00
2018-11-25T01:36:34.069Z,0.00
2018-11-25T01:37:34.047Z,0.00
2018-11-25T01:38:34.018Z,0.00
2018-11-25T01:39:33.992Z,0.00
2018-11-25T01:40:33.965Z,0.00
2018-11-25T01:41:33.940Z,0.00
2018-11-25T01:42:33.912Z,0.00
2018-11-25T01:43:33.886Z,0.00
2018-11-25T01:44:33.863Z,0.00
2018-11-25T01:45:33.836Z,0.00
2018-11-25T01:46:33.811Z,0.00
2018-11-25T01:47:33.801Z,0.00
2018-11-25T01:48:33.758Z,0.00
2018-11-25T01:49:33.735Z,0.00
2018-11-25T01:50:33.718Z,0.00
2018-11-25T01:51:33.680Z,0.00
2018-11-25T01:52:33.652Z,0.00
2018-11-25T01:53:33.633Z,0.00
2018-11-25T01:54:33.601Z,0.00
2018-11-25T01:55:33.575Z,0.00
2018-11-25T01:56:33.557Z,0.00
2018-11-25T01:57:33.524Z,0.00
2018-11-25T01:58:33.501Z,0.00
2018-11-25T01:59:33.476Z,0.00
2018-11-25T02:00:33.466Z,0.00
2018-11-25T02:01:33.419Z,0.00
2018-11-25T02:02:33.393Z,0.00
2018-11-25T02:03:33.373Z,0.00
2018-11-25T02:04:33.341Z,0.00
2018-11-25T02:05:33.322Z,0.00
2018-11-25T02:06:33.291Z,0.00
2018-11-25T02:07:33.264Z,0.00
2018-11-25T02:08:33.237Z,0.00
2018-11-25T02:09:33.212Z,0.00
2018-11-25T02:10:33.186Z,0.00
2018-11-25T02:11:33.159Z,0.00
2018-11-25T02:12:33.132Z,0.00
2018-11-25T02:13:33.110Z,0.00
2018-11-25T02:14:33.089Z,0.00
2018-11-25T02:15:33.058Z,0.00
2018-11-25T02:16:33.028Z,0.00
2018-11-25T02:17:33.006Z,0.00
2018-11-25T02:18:32.978Z,0.00
2018-11-25T02:19:32.950Z,0.00
2018-11-25T02:20:32.924Z,0.00
2018-11-25T02:21:32.901Z,0.00
2018-11-25T02:22:32.872Z,0.00
2018-11-25T02:23:32.847Z,0.00
2018-11-25T02:24:32.821Z,0.00
2018-11-25T02:25:32.797Z,0.00
2018-11-25T02:26:32.771Z,0.00
2018-11-25T02:27:32.748Z,0.00
2018-11-25T02:28:32.717Z,0.00
2018-11-25T02:29:32.691Z,0.00
2018-11-25T02:30:32.666Z,0.00
2018-11-25T02:31:32.639Z,0.00
2018-11-25T02:32:32.613Z,0.00
2018-11-25T02:33:32.602Z,0.00
2018-11-25T02:34:32.560Z,0.00
2018-11-25T02:35:32.538Z,0.00
2018-11-25T02:36:32.509Z,0.00
2018-11-25T02:37:32.486Z,0.00
2018-11-25T02:38:32.458Z,0.00
2018-11-25T02:39:32.432Z,0.00
2018-11-25T02:40:32.406Z,0.00
2018-11-25T02:41:32.380Z,0.00
2018-11-25T02:42:32.353Z,0.00
2018-11-25T02:43:32.329Z,0.00
2018-11-25T02:44:32.302Z,0.00
2018-11-25T02:45:32.278Z,0.00
2018-11-25T02:46:32.253Z,0.00
2018-11-25T02:47:32.223Z,0.00
2018-11-25T02:48:32.199Z,0.00
2018-11-25T02:49:32.173Z,0.00
2018-11-25T02:50:32.146Z,0.00
2018-11-25T02:51:32.129Z,0.00
2018-11-25T02:52:32.094Z,0.00
2018-11-25T02:53:32.067Z,0.00
2018-11-25T02:54:32.041Z,0.00
2018-11-25T02:55:32.014Z,0.00
2018-11-25T02:56:31.989Z,0.00
2018-11-25T02:57:31.964Z,0.00
2018-11-25T02:58:31.937Z,0.00
2018-11-25T02:59:31.910Z,0.00
2018-11-25T03:00:31.885Z,0.00
2018-11-25T03:01:31.859Z,0.00
2018-11-25T03:02:31.833Z,0.00
2018-11-25T03:03:31.815Z,0.00
2018-11-25T03:04:31.781Z,0.00
2018-11-25T03:05:31.753Z,0.00
2018-11-25T03:06:31.733Z,0.00
2018-11-25T03:07:31.703Z,0.00
2018-11-25T03:08:31.677Z,0.00
2018-11-25T03:09:31.655Z,0.00
2018-11-25T03:10:31.623Z,0.00
2018-11-25T03:11:31.631Z,0.00
2018-11-25T03:12:31.574Z,0.00
2018-11-25T03:13:31.551Z,0.00
2018-11-25T03:14:31.541Z,0.00
2018-11-25T03:15:31.499Z,0.00
2018-11-25T03:16:31.469Z,0.00
2018-11-25T03:17:31.443Z,0.00
2018-11-25T03:18:31.416Z,0.00
2018-11-25T03:19:31.393Z,0.00
2018-11-25T03:20:31.367Z,0.00
2018-11-25T03:21:31.343Z,0.00
2018-11-25T03:22:31.312Z,0.00
2018-11-25T03:23:31.288Z,0.00
2018-11-25T03:24:31.261Z,0.00
2018-11-25T03:25:31.236Z,0.00
2018-11-25T03:26:31.209Z,0.00
2018-11-25T03:27:31.181Z,0.00
2018-11-25T03:28:31.157Z,0.00
2018-11-25T03:29:31.131Z,0.00
2018-11-25T03:30:31.104Z,0.00
2018-11-25T03:31:31.079Z,0.00
2018-11-25T03:32:31.051Z,0.00
2018-11-25T03:33:31.026Z,0.00
2018-11-25T03:34:31.003Z,0.00
2018-11-25T03:35:30.979Z,0.00
2018-11-25T03:36:30.948Z,0.00
2018-11-25T03:37:30.930Z,0.00
2018-11-25T03:38:30.899Z,0.00
2018-11-25T03:39:30.871Z,0.00
2018-11-25T03:40:30.851Z,0.00
2018-11-25T03:41:30.818Z,0.00
2018-11-25T03:42:30.801Z,0.00
2018-11-25T03:43:30.766Z,0.00
2018-11-25T03:44:30.742Z,0.00
2018-11-25T03:45:30.718Z,0.00
2018-11-25T03:46:30.687Z,0.00
2018-11-25T03:47:30.691Z,0.00
2018-11-25T03:48:30.639Z,0.00
2018-11-25T03:49:30.611Z,0.00
2018-11-25T03:50:30.585Z,0.00
2018-11-25T03:51:30.559Z,0.00
2018-11-25T03:52:30.534Z,0.00
2018-11-25T03:53:30.507Z,0.00
2018-11-25T03:54:30.481Z,0.00
2018-11-25T03:55:30.457Z,0.00
2018-11-25T03:56:30.428Z,0.00
2018-11-25T03:57:30.411Z,0.00
2018-11-25T03:58:30.376Z,0.00
2018-11-25T03:59:30.359Z,0.00
2018-11-25T04:00:30.325Z,0.00
2018-11-25T04:01:30.301Z,0.00
2018-11-25T04:02:30.279Z,0.00
2018-11-25T04:03:30.246Z,0.00
2018-11-25T04:04:30.238Z,0.00
2018-11-25T04:05:30.199Z,0.00
2018-11-25T04:06:30.184Z,0.00
2018-11-25T04:07:30.162Z,0.00
2018-11-25T04:08:30.123Z,0.00
2018-11-25T04:09:30.104Z,0.00
2018-11-25T04:10:30.084Z,0.00
2018-11-25T04:11:30.039Z,0.00
2018-11-25T04:12:30.027Z,0.00
2018-11-25T04:13:30.005Z,0.00
2018-11-25T04:14:29.961Z,0.00
2018-11-25T04:15:29.937Z,0.00
2018-11-25T04:16:29.920Z,0.00
2018-11-25T04:17:29.883Z,0.00
2018-11-25T04:18:29.858Z,0.00
2018-11-25T04:19:29.843Z,0.00
2018-11-25T04:20:29.805Z,0.00
2018-11-25T04:21:29.786Z,0.00
2018-11-25T04:22:29.759Z,0.00
2018-11-25T04:23:29.726Z,0.00
2018-11-25T04:24:29.705Z,0.00
2018-11-25T04:25:29.675Z,0.00
2018-11-25T04:26:29.682Z,0.00
2018-11-25T04:27:29.935Z,0.00
2018-11-25T04:28:29.597Z,0.00
2018-11-25T04:29:29.588Z,0.00
2018-11-25T04:30:29.548Z,0.00
2018-11-25T04:31:29.523Z,0.00
2018-11-25T04:32:29.510Z,0.00
2018-11-25T04:33:29.468Z,0.00
2018-11-25T04:34:29.607Z,0.00
2018-11-25T04:35:29.430Z,0.00
2018-11-25T04:36:29.389Z,0.00
2018-11-25T04:37:29.364Z,0.00
2018-11-25T04:38:29.337Z,0.00
2018-11-25T04:39:29.311Z,0.00
2018-11-25T04:40:29.285Z,0.00
2018-11-25T04:41:29.257Z,0.00
2018-11-25T04:42:29.231Z,0.00
2018-11-25T04:43:29.216Z,0.00
2018-11-25T04:44:29.180Z,0.00
2018-11-25T04:45:29.154Z,0.00
2018-11-25T04:46:29.128Z,0.00
2018-11-25T04:47:29.103Z,0.00
2018-11-25T04:48:29.077Z,0.00
2018-11-25T04:49:29.050Z,0.00
2018-11-25T04:50:29.024Z,0.00
2018-11-25T04:51:29.003Z,0.00
2018-11-25T04:52:28.975Z,0.00
2018-11-25T04:53:28.947Z,0.00
2018-11-25T04:54:28.918Z,0.00
2018-11-25T04:55:28.894Z,0.00
2018-11-25T04:56:28.867Z,0.00
2018-11-25T04:57:28.860Z,0.00
2018-11-25T04:58:28.815Z,0.00
2018-11-25T04:59:28.789Z,0.00
2018-11-25T05:00:28.774Z,0.00
2018-11-25T05:01:28.738Z,0.00
2018-11-25T05:02:28.712Z,0.00
2018-11-25T05:03:28.688Z,0.00
2018-11-25T05:04:28.662Z,0.00
2018-11-25T05:05:28.640Z,0.00
2018-11-25T05:06:28.610Z,0.00
2018-11-25T05:07:28.581Z,0.00
2018-11-25T05:08:28.557Z,0.00
2018-11-25T05:09:28.534Z,0.00
2018-11-25T05:10:28.503Z,0.00
2018-11-25T05:11:28.486Z,0.00
2018-11-25T05:12:28.452Z,0.00
2018-11-25T05:13:28.424Z,0.00
2018-11-25T05:14:28.397Z,0.00
2018-11-25T05:15:28.373Z,0.00
2018-11-25T05:16:28.346Z,0.00
2018-11-25T05:17:28.321Z,0.00
2018-11-25T05:18:28.294Z,0.00
2018-11-25T05:19:28.271Z,0.00
2018-11-25T05:20:28.241Z,0.00
2018-11-25T05:21:28.216Z,0.00
2018-11-25T05:22:28.195Z,0.00
2018-11-25T05:23:28.164Z,0.00
2018-11-25T05:24:28.141Z,0.00
2018-11-25T05:25:28.112Z,0.00
2018-11-25T05:26:28.088Z,0.00
2018-11-25T05:27:28.061Z,0.00
2018-11-25T05:28:28.033Z,0.00
2018-11-25T05:29:28.009Z,0.00
2018-11-25T05:30:27.980Z,0.00
2018-11-25T05:31:27.971Z,0.00
2018-11-25T05:32:27.931Z,0.00
2018-11-25T05:33:27.905Z,0.00
2018-11-25T05:34:27.879Z,0.00
2018-11-25T05:35:27.851Z,0.00
2018-11-25T05:36:27.828Z,0.00
2018-11-25T05:37:27.799Z,0.00
2018-11-25T05:38:27.772Z,0.00
2018-11-25T05:39:27.749Z,0.00
2018-11-25T05:40:27.719Z,0.00
2018-11-25T05:41:27.696Z,0.00
2018-11-25T05:42:27.666Z,0.00
2018-11-25T05:43:27.642Z,0.00
2018-11-25T05:44:27.618Z,0.00
2018-11-25T05:45:27.592Z,0.00
2018-11-25T05:46:27.564Z,0.00
2018-11-25T05:47:27.537Z,0.00
2018-11-25T05:48:27.513Z,0.00
2018-11-25T05:49:27.485Z,0.00
2018-11-25T05:50:27.463Z,0.00
2018-11-25T05:51:27.436Z,0.00
2018-11-25T05:52:27.412Z,0.00
2018-11-25T05:53:27.382Z,0.00
2018-11-25T05:54:27.355Z,0.00
2018-11-25T05:55:27.331Z,0.00
2018-11-25T05:56:27.303Z,0.00
2018-11-25T05:57:27.279Z,0.00
2018-11-25T05:58:27.251Z,0.00
2018-11-25T05:59:27.230Z,0.00
2018-11-25T06:00:27.198Z,0.00
2018-11-25T06:01:27.173Z,0.00
2018-11-25T06:02:27.155Z,0.00
2018-11-25T06:03:27.120Z,0.00
2018-11-25T06:04:27.097Z,0.00
2018-11-25T06:05:27.072Z,0.00
2018-11-25T06:06:27.042Z,0.00
2018-11-25T06:07:27.016Z,0.00
2018-11-25T06:08:26.989Z,0.00
2018-11-25T06:09:26.967Z,0.00
2018-11-25T06:10:26.938Z,0.00
2018-11-25T06:11:26.917Z,0.00
2018-11-25T06:12:26.888Z,0.00
2018-11-25T06:13:26.860Z,0.00
2018-11-25T06:14:26.832Z,0.00
2018-11-25T06:15:26.812Z,0.00
2018-11-25T06:16:26.783Z,0.00
2018-11-25T06:17:26.777Z,0.00
2018-11-25T06:18:26.728Z,0.00
2018-11-25T06:19:26.702Z,0.00
2018-11-25T06:20:26.678Z,0.00
2018-11-25T06:21:26.651Z,0.00
2018-11-25T06:22:26.626Z,0.00
2018-11-25T06:23:26.599Z,0.00
2018-11-25T06:24:26.580Z,0.00
2018-11-25T06:25:26.548Z,0.00
2018-11-25T06:26:26.523Z,0.00
2018-11-25T06:27:26.494Z,0.00
2018-11-25T06:28:26.471Z,0.00
2018-11-25T06:29:26.449Z,0.00
2018-11-25T06:30:26.420Z,0.00
2018-11-25T06:31:26.389Z,0.00
2018-11-25T06:32:26.363Z,0.00
2018-11-25T06:33:26.342Z,0.00
2018-11-25T06:34:26.314Z,0.00
2018-11-25T06:35:26.284Z,0.00
2018-11-25T06:36:26.266Z,0.00
2018-11-25T06:37:26.233Z,0.00
2018-11-25T06:38:26.207Z,0.00
2018-11-25T06:39:26.180Z,0.00
2018-11-25T06:40:26.154Z,0.00
2018-11-25T06:41:27.145Z,0.00
2018-11-25T06:42:26.102Z,0.00
2018-11-25T06:43:26.075Z,0.00
2018-11-25T06:44:26.049Z,0.00
2018-11-25T06:45:26.028Z,0.00
2018-11-25T06:46:26.000Z,0.00
2018-11-25T06:47:25.985Z,0.00
2018-11-25T06:48:25.949Z,0.00
2018-11-25T06:49:25.966Z,0.00
2018-11-25T06:50:25.894Z,0.00
2018-11-25T06:51:25.948Z,0.00
2018-11-25T06:52:25.842Z,0.00
2018-11-25T06:53:25.843Z,0.00
2018-11-25T06:54:25.790Z,0.00
2018-11-25T06:55:25.766Z,0.00
2018-11-25T06:56:27.514Z,4.00
2018-11-25T06:57:25.713Z,4.00
2018-11-25T06:58:25.684Z,4.00
2018-11-25T06:59:25.665Z,4.00
2018-11-25T07:00:25.633Z,4.00
2018-11-25T07:01:25.611Z,0.00
2018-11-25T07:02:25.580Z,0.00
2018-11-25T07:03:25.554Z,0.00
2018-11-25T07:04:25.531Z,4.00
2018-11-25T07:05:25.502Z,4.00
2018-11-25T07:06:25.475Z,4.00
2018-11-25T07:07:25.449Z,4.00
2018-11-25T07:08:25.423Z,4.00
2018-11-25T07:09:25.406Z,4.00
2018-11-25T07:10:25.369Z,4.00
2018-11-25T07:11:25.346Z,8.00
2018-11-25T07:12:25.324Z,8.00
2018-11-25T07:13:25.292Z,8.00
2018-11-25T07:14:25.267Z,8.00
2018-11-25T07:15:25.247Z,8.00
2018-11-25T07:16:25.216Z,8.00
2018-11-25T07:17:25.192Z,8.00
2018-11-25T07:18:25.162Z,8.00
2018-11-25T07:19:25.137Z,8.00
2018-11-25T07:20:25.110Z,8.00
2018-11-25T07:21:25.084Z,8.00
2018-11-25T07:22:25.056Z,8.00
2018-11-25T07:23:25.031Z,8.00
2018-11-25T07:24:25.004Z,8.00
2018-11-25T07:25:24.978Z,8.00
2018-11-25T07:26:24.954Z,8.00
2018-11-25T07:27:24.927Z,12.00
2018-11-25T07:28:24.899Z,8.00
2018-11-25T07:29:24.879Z,8.00
2018-11-25T07:30:24.845Z,8.00
2018-11-25T07:31:24.823Z,16.00
2018-11-25T07:32:24.796Z,12.00
2018-11-25T07:33:24.768Z,12.00
2018-11-25T07:34:24.742Z,16.00
2018-11-25T07:35:24.719Z,20.00
2018-11-25T07:36:24.690Z,20.00
2018-11-25T07:37:24.664Z,20.00
2018-11-25T07:38:24.639Z,28.00
2018-11-25T07:39:24.614Z,24.00
2018-11-25T07:40:24.585Z,24.00
2018-11-25T07:41:24.562Z,28.00
2018-11-25T07:42:24.539Z,32.00
2018-11-25T07:43:24.506Z,32.00
2018-11-25T07:44:24.481Z,36.00
2018-11-25T07:45:30.243Z,36.00
2018-11-25T07:46:24.427Z,32.00
2018-11-25T07:47:24.402Z,36.00
2018-11-25T07:48:24.377Z,40.00
2018-11-25T07:49:24.386Z,36.00
2018-11-25T07:50:24.322Z,36.00
2018-11-25T07:51:24.326Z,40.00
2018-11-25T07:52:24.273Z,48.00
2018-11-25T07:53:24.245Z,48.00
2018-11-25T07:54:24.219Z,48.00
2018-11-25T07:55:24.195Z,48.00
2018-11-25T07:56:24.170Z,44.00
2018-11-25T07:57:24.141Z,44.00
2018-11-25T07:58:24.116Z,48.00
2018-11-25T07:59:24.089Z,44.00
2018-11-25T08:00:24.062Z,44.00
2018-11-25T08:01:24.042Z,40.00
2018-11-25T08:02:24.014Z,48.00
2018-11-25T08:03:23.991Z,44.00
2018-11-25T08:04:23.963Z,52.00
2018-11-25T08:05:23.937Z,48.00
2018-11-25T08:06:23.909Z,56.00
2018-11-25T08:07:23.878Z,52.00
2018-11-25T08:08:23.854Z,56.00
2018-11-25T08:09:23.829Z,64.00
2018-11-25T08:10:23.800Z,60.00
2018-11-25T08:11:23.809Z,56.00
2018-11-25T08:12:23.749Z,56.00
2018-11-25T08:13:23.732Z,60.00
2018-11-25T08:14:23.697Z,64.00
2018-11-25T08:15:23.672Z,56.00
2018-11-25T08:16:23.650Z,56.00
2018-11-25T08:17:23.621Z,56.00
2018-11-25T08:18:23.593Z,56.00
2018-11-25T08:19:23.568Z,52.00
2018-11-25T08:20:23.541Z,52.00
2018-11-25T08:21:23.515Z,48.00
2018-11-25T08:22:23.487Z,48.00
2018-11-25T08:23:23.462Z,48.00
2018-11-25T08:24:23.436Z,48.00
2018-11-25T08:25:23.410Z,52.00
2018-11-25T08:26:23.386Z,52.00
2018-11-25T08:27:23.356Z,56.00
2018-11-25T08:28:23.331Z,56.00
2018-11-25T08:29:23.305Z,52.00
2018-11-25T08:30:23.279Z,64.00
2018-11-25T08:31:23.253Z,68.00
2018-11-25T08:32:23.227Z,68.00
2018-11-25T08:33:23.204Z,84.00
2018-11-25T08:34:23.180Z,84.00
2018-11-25T08:35:23.154Z,96.00
2018-11-25T08:36:23.125Z,104.00
2018-11-25T08:37:23.098Z,112.00
2018-11-25T08:38:23.069Z,120.00
2018-11-25T08:39:23.044Z,112.00
2018-11-25T08:40:23.023Z,100.00
2018-11-25T08:41:22.995Z,104.00
2018-11-25T08:42:22.965Z,108.00
2018-11-25T08:43:22.941Z,116.00
2018-11-25T08:44:22.915Z,100.00
2018-11-25T08:45:22.888Z,104.00
2018-11-25T08:46:22.863Z,112.00
2018-11-25T08:47:22.839Z,112.00
2018-11-25T08:48:22.814Z,124.00
2018-11-25T08:49:22.783Z,120.00
2018-11-25T08:50:22.755Z,124.00
2018-11-25T08:51:22.731Z,124.00
2018-11-25T08:52:22.705Z,116.00
2018-11-25T08:53:22.679Z,112.00
2018-11-25T08:54:22.653Z,116.00
2018-11-25T08:55:22.633Z,120.00
2018-11-25T08:56:22.601Z,116.00
2018-11-25T08:57:22.581Z,116.00
2018-11-25T08:58:22.548Z,120.00
2018-11-25T08:59:22.526Z,124.00
2018-11-25T09:00:22.497Z,128.00
2018-11-25T09:01:22.472Z,136.00
2018-11-25T09:02:22.454Z,132.00
2018-11-25T09:03:22.420Z,152.00
2018-11-25T09:04:22.398Z,160.00
2018-11-25T09:05:22.379Z,152.00
2018-11-25T09:06:22.342Z,156.00
2018-11-25T09:07:22.336Z,144.00
2018-11-25T09:08:22.292Z,144.00
2018-11-25T09:09:22.264Z,128.00
2018-11-25T09:10:22.247Z,132.00
2018-11-25T09:11:22.219Z,160.00
2018-11-25T09:12:22.187Z,144.00
2018-11-25T09:13:22.351Z,128.00
2018-11-25T09:14:22.137Z,112.00
2018-11-25T09:15:22.106Z,104.00
2018-11-25T09:16:22.081Z,112.00
2018-11-25T09:17:22.056Z,112.00
2018-11-25T09:18:22.033Z,104.00
2018-11-25T09:19:22.004Z,100.00
2018-11-25T09:20:21.981Z,100.00
2018-11-25T09:21:21.954Z,100.00
2018-11-25T09:22:21.928Z,104.00
2018-11-25T09:23:21.900Z,104.00
2018-11-25T09:24:21.874Z,112.00
2018-11-25T09:25:21.852Z,108.00
2018-11-25T09:26:21.820Z,112.00
2018-11-25T09:27:21.800Z,112.00
2018-11-25T09:28:21.772Z,112.00
2018-11-25T09:29:21.747Z,108.00
2018-11-25T09:30:21.722Z,108.00
2018-11-25T09:31:21.792Z,112.00
2018-11-25T09:32:23.037Z,108.00
2018-11-25T09:33:23.339Z,108.00
2018-11-25T09:34:21.616Z,108.00
2018-11-25T09:35:21.589Z,116.00
2018-11-25T09:36:21.564Z,120.00
2018-11-25T09:37:21.541Z,120.00
2018-11-25T09:38:21.510Z,128.00
2018-11-25T09:39:21.486Z,132.00
2018-11-25T09:40:21.464Z,132.00
2018-11-25T09:41:21.434Z,132.00
2018-11-25T09:42:21.407Z,132.00
2018-11-25T09:43:21.381Z,136.00
2018-11-25T09:44:21.356Z,148.00
2018-11-25T09:45:21.336Z,148.00
2018-11-25T09:46:21.336Z,172.00
2018-11-25T09:47:21.284Z,172.00
2018-11-25T09:48:21.255Z,164.00
2018-11-25T09:49:21.230Z,164.00
2018-11-25T09:50:21.204Z,168.00
2018-11-25T09:51:21.178Z,164.00
2018-11-25T09:52:21.149Z,152.00
2018-11-25T09:53:21.124Z,156.00
2018-11-25T09:54:21.099Z,160.00
2018-11-25T09:55:21.079Z,152.00
2018-11-25T09:56:21.050Z,164.00
2018-11-25T09:57:21.022Z,164.00
2018-11-25T09:58:25.286Z,164.00
2018-11-25T09:59:20.969Z,168.00
2018-11-25T10:00:20.947Z,164.00
2018-11-25T10:01:20.918Z,156.00
2018-11-25T10:02:20.893Z,152.00
2018-11-25T10:03:20.865Z,160.00
2018-11-25T10:04:20.842Z,156.00
2018-11-25T10:05:20.814Z,152.00
2018-11-25T10:06:20.842Z,156.00
2018-11-25T10:07:20.764Z,152.00
2018-11-25T10:08:20.738Z,160.00
2018-11-25T10:09:20.712Z,160.00
2018-11-25T10:10:20.686Z,164.00
2018-11-25T10:11:20.672Z,160.00
2018-11-25T10:12:20.639Z,152.00
2018-11-25T10:13:20.609Z,152.00
2018-11-25T10:14:20.583Z,160.00
2018-11-25T10:15:20.556Z,160.00
2018-11-25T10:16:20.533Z,200.00
2018-11-25T10:17:20.509Z,172.00
2018-11-25T10:18:20.484Z,184.00
2018-11-25T10:19:20.457Z,184.00
2018-11-25T10:20:20.428Z,180.00
2018-11-25T10:21:20.403Z,184.00
2018-11-25T10:22:20.376Z,180.00
2018-11-25T10:23:20.355Z,180.00
2018-11-25T10:24:20.325Z,180.00
2018-11-25T10:25:20.301Z,172.00
2018-11-25T10:26:20.274Z,168.00
2018-11-25T10:27:20.247Z,172.00
2018-11-25T10:28:20.223Z,160.00
2018-11-25T10:29:20.198Z,160.00
2018-11-25T10:30:20.171Z,148.00
2018-11-25T10:31:20.149Z,140.00
2018-11-25T10:32:20.122Z,148.00
2018-11-25T10:33:20.098Z,148.00
2018-11-25T10:34:20.067Z,140.00
2018-11-25T10:35:20.044Z,124.00
2018-11-25T10:36:20.018Z,124.00
2018-11-25T10:37:19.995Z,128.00
2018-11-25T10:38:19.969Z,124.00
2018-11-25T10:39:19.963Z,124.00
2018-11-25T10:40:19.924Z,120.00
2018-11-25T10:41:20.066Z,116.00
2018-11-25T10:42:19.868Z,112.00
2018-11-25T10:43:20.092Z,112.00
2018-11-25T10:44:19.811Z,112.00
2018-11-25T10:45:19.785Z,112.00
2018-11-25T10:46:19.760Z,112.00
2018-11-25T10:47:19.735Z,120.00
2018-11-25T10:48:19.735Z,136.00
2018-11-25T10:49:19.683Z,140.00
2018-11-25T10:50:19.657Z,148.00
2018-11-25T10:51:19.635Z,152.00
2018-11-25T10:52:19.606Z,148.00
2018-11-25T10:53:19.582Z,144.00
2018-11-25T10:54:19.554Z,144.00
2018-11-25T10:55:19.530Z,148.00
2018-11-25T10:56:19.522Z,140.00
2018-11-25T10:57:19.481Z,148.00
2018-11-25T10:58:19.476Z,140.00
2018-11-25T10:59:19.427Z,132.00
2018-11-25T11:00:19.403Z,132.00
2018-11-25T11:01:19.381Z,128.00
2018-11-25T11:02:19.356Z,124.00
2018-11-25T11:03:19.324Z,116.00
2018-11-25T11:04:19.300Z,120.00
2018-11-25T11:05:19.274Z,124.00
2018-11-25T11:06:19.249Z,140.00
2018-11-25T11:07:19.223Z,136.00
2018-11-25T11:08:19.198Z,140.00
2018-11-25T11:09:19.219Z,132.00
2018-11-25T11:10:19.156Z,132.00
2018-11-25T11:11:19.119Z,132.00
2018-11-25T11:12:19.093Z,136.00
2018-11-25T11:13:19.071Z,116.00
2018-11-25T11:14:19.045Z,116.00
2018-11-25T11:15:19.019Z,116.00
2018-11-25T11:16:19.025Z,116.00
2018-11-25T11:17:18.969Z,132.00
2018-11-25T11:18:18.939Z,140.00
2018-11-25T11:19:18.918Z,156.00
2018-11-25T11:20:18.890Z,152.00
2018-11-25T11:21:18.863Z,144.00
2018-11-25T11:22:18.840Z,160.00
2018-11-25T11:23:18.814Z,156.00
2018-11-25T11:24:18.787Z,160.00
2018-11-25T11:25:18.761Z,152.00
2018-11-25T11:26:18.742Z,148.00
2018-11-25T11:27:18.712Z,148.00
2018-11-25T11:28:18.690Z,148.00
2018-11-25T11:29:18.659Z,136.00
2018-11-25T11:30:18.633Z,132.00
2018-11-25T11:31:18.607Z,128.00
2018-11-25T11:32:18.582Z,124.00
2018-11-25T11:33:18.559Z,124.00
2018-11-25T11:34:18.532Z,120.00
2018-11-25T11:35:18.505Z,116.00
2018-11-25T11:36:18.482Z,120.00
2018-11-25T11:37:18.460Z,108.00
2018-11-25T11:38:18.431Z,100.00
2018-11-25T11:39:18.406Z,100.00
2018-11-25T11:40:18.385Z,96.00
2018-11-25T11:41:18.352Z,112.00
2018-11-25T11:42:18.330Z,112.00
2018-11-25T11:43:18.315Z,108.00
2018-11-25T11:44:18.275Z,116.00
2018-11-25T11:45:18.266Z,116.00
2018-11-25T11:46:18.225Z,116.00
2018-11-25T11:47:18.202Z,116.00
2018-11-25T11:48:18.176Z,120.00
2018-11-25T11:49:18.208Z,124.00
2018-11-25T11:50:18.122Z,124.00
2018-11-25T11:51:25.319Z,128.00
2018-11-25T11:52:18.071Z,124.00
2018-11-25T11:53:18.046Z,120.00
2018-11-25T11:54:18.036Z,124.00
2018-11-25T11:55:17.997Z,124.00
2018-11-25T11:56:17.969Z,124.00
2018-11-25T11:57:17.946Z,116.00
2018-11-25T11:58:17.920Z,116.00
2018-11-25T11:59:17.894Z,120.00
2018-11-25T12:00:17.868Z,116.00
2018-11-25T12:01:17.843Z,112.00
2018-11-25T12:02:17.815Z,112.00
2018-11-25T12:03:26.146Z,112.00
2018-11-25T12:04:17.776Z,104.00
2018-11-25T12:05:17.744Z,96.00
2018-11-25T12:06:17.725Z,92.00
2018-11-25T12:07:17.695Z,100.00
2018-11-25T12:08:17.693Z,92.00
2018-11-25T12:09:17.714Z,96.00
2018-11-25T12:10:17.609Z,96.00
2018-11-25T12:11:17.584Z,100.00
2018-11-25T12:12:17.559Z,92.00
2018-11-25T12:13:17.544Z,100.00
2018-11-25T12:14:17.515Z,96.00
2018-11-25T12:15:17.484Z,96.00
2018-11-25T12:16:17.459Z,104.00
2018-11-25T12:17:17.432Z,92.00
2018-11-25T12:18:17.407Z,88.00
2018-11-25T12:19:17.380Z,76.00
2018-11-25T12:20:21.257Z,80.00
2018-11-25T12:21:17.329Z,80.00
2018-11-25T12:22:17.307Z,76.00
2018-11-25T12:23:17.278Z,80.00
2018-11-25T12:24:17.252Z,80.00
2018-11-25T12:25:17.228Z,84.00
2018-11-25T12:26:17.213Z,84.00
2018-11-25T12:27:17.174Z,76.00
2018-11-25T12:28:17.147Z,92.00
2018-11-25T12:29:17.122Z,100.00
2018-11-25T12:30:17.099Z,100.00
2018-11-25T12:31:17.086Z,100.00
2018-11-25T12:32:17.047Z,100.00
2018-11-25T12:33:17.022Z,96.00
2018-11-25T12:34:16.996Z,92.00
2018-11-25T12:35:16.972Z,84.00
2018-11-25T12:36:16.946Z,88.00
2018-11-25T12:37:16.977Z,88.00
2018-11-25T12:38:16.893Z,76.00
2018-11-25T12:39:16.875Z,72.00
2018-11-25T12:40:16.842Z,72.00
2018-11-25T12:41:16.821Z,80.00
2018-11-25T12:42:16.802Z,80.00
2018-11-25T12:43:16.765Z,84.00
2018-11-25T12:44:16.742Z,92.00
2018-11-25T12:45:16.717Z,92.00
2018-11-25T12:46:17.411Z,92.00
2018-11-25T12:47:16.663Z,88.00
2018-11-25T12:48:16.637Z,104.00
2018-11-25T12:49:16.611Z,100.00
2018-11-25T12:50:16.784Z,92.00
2018-11-25T12:51:18.135Z,88.00
2018-11-25T12:52:16.535Z,80.00
2018-11-25T12:53:16.680Z,84.00
2018-11-25T12:54:16.524Z,84.00
2018-11-25T12:55:16.490Z,80.00
2018-11-25T12:56:16.433Z,72.00
2018-11-25T12:57:16.407Z,76.00
2018-11-25T12:58:17.273Z,88.00
2018-11-25T12:59:16.380Z,76.00
2018-11-25T13:00:16.330Z,80.00
2018-11-25T13:01:16.330Z,92.00
2018-11-25T13:02:16.279Z,96.00
2018-11-25T13:03:16.255Z,96.00
2018-11-25T13:04:16.238Z,96.00
2018-11-25T13:05:16.289Z,92.00